Terminal Aerodrome Forecast
Issued by NWS Detroit/Pontiac, MI

Home | Current Version | Previous Version | Text Only | Print | Product List | Glossary On
Versions: 1 2 3 4 5 6 7 8 9 10 11 12 13 14 15 16 17 18 19 20 21 22 23 24 25 26 27 28
000
FTUS43 KDTX 210500
TAFDTW
TAF
KDTW 210520Z 2106/2212 17004KT P6SM BKN250
     FM211500 21009KT P6SM BKN150
     FM220400 25008KT P6SM -SHRA SCT050 BKN070
     FM220800 29011KT 3SM -SHRA BKN025 OVC040=

USA.gov is the U.S. government's official web portal to all federal, state and local government web resources and services.